aviador You're here:

PAFS Decoded Metar

NIKOLAI in AK, USA
Report Time2018-04-27 02:01:00
UTC Time2018-04-27 03:04:58
Flight Rules vfr VFR
Wind210° at 11 Gusting to 16 kt
W.Decomp.*RWY 22: 9.6 kt HW 5.3 kt LCW
W.Rank210° ranks 6
Current wind is above 210° avg. (7.1)
Visibility9999 m
Phenomena:N/A
Clouds:N/A
Expected CloudBase > 3,600 ft AGL from Temp-Dew spread
CeilingNone
Temp07°C (ISA -7)
Dew Point-2°C (53% RH)
AAT0.8°C
QNH1015 hPa
Density Alt-443 ft
Elevation413 ft
Report Wrong Elevation
Raw Report
PAFS 270201Z AUTO 21011G16KT 10SM CLR 07/M02 A2996=

Extra information for PAFS:More info

Metar Taf Metar & Taf Last 4 Metars F.Rules Stats Wind Profile Meteogram Temp Stats Airport Information Weather charts Add Link Nearby VenuesMetar ALERT Operation Metar Decoded Social comments

AIRNAV info for PAFS